Time;durP1;ratioP1;P1;durP2;ratioP2;P2;SDS_P1;SDS_P2;PMS_P1;PMS_P2;Temp;Humidity;BMP_temperature;BMP_pressure;BME280_temperature;BME280_humidity;BME280_pressure;Samples;Min_cycle;Max_cycle;Signal;HPM_P1;HPM_P2
2022/04/15 00:00:43;;;;;;;2.45;1.83;;;;;;;;;;4996358;28;20030;-65
2022/04/15 00:03:11;;;;;;;3.00;2.03;;;;;;;;;;4996036;28;20039;-64
2022/04/15 00:05:37;;;;;;;3.17;1.80;;;;;;;;;;4996260;28;20451;-64
2022/04/15 00:08:07;;;;;;;5.35;2.95;;;;;;;;;;4992786;28;20030;-66
2022/04/15 00:10:34;;;;;;;2.80;1.55;;;11.30;97.70;;;;;;4991429;28;20054;-64
2022/04/15 00:13:01;;;;;;;2.40;1.67;;;;;;;;;;4995883;28;20018;-63
2022/04/15 00:15:27;;;;;;;4.40;1.30;;;;;;;;;;5004149;28;20527;-65
2022/04/15 00:17:54;;;;;;;2.28;1.67;;;;;;;;;;5007504;28;20061;-64
2022/04/15 00:20:20;;;;;;;2.75;1.80;;;;;;;;;;5007234;28;20057;-65
2022/04/15 00:22:46;;;;;;;4.35;2.38;;;11.30;99.90;;;;;;4991793;28;20064;-64
2022/04/15 00:25:12;;;;;;;4.55;2.03;;;;;;;;;;5007760;28;20072;-64
2022/04/15 00:27:38;;;;;;;1.85;1.40;;;;;;;;;;5007266;28;20108;-65
2022/04/15 00:30:09;;;;;;;2.20;1.53;;;11.20;96.80;;;;;;5007164;28;20053;-64
2022/04/15 00:32:35;;;;;;;2.42;1.73;;;;;;;;;;5007384;28;20026;-64
2022/04/15 00:35:02;;;;;;;2.65;2.17;;;;;;;;;;5006932;28;20022;-65
2022/04/15 00:37:29;;;;;;;3.17;1.43;;;;;;;;;;5007878;28;20721;-64
2022/04/15 00:39:55;;;;;;;3.08;1.85;;;;;;;;;;5007820;28;20062;-66
2022/04/15 00:42:22;;;;;;;12.55;1.73;;;11.30;96.50;;;;;;5007681;28;20033;-65
2022/04/15 00:44:51;;;;;;;1.80;1.25;;;;;;;;;;5006511;28;20077;-63
2022/04/15 00:47:37;;;;;;;3.78;1.88;;;11.20;96.30;;;;;;5007058;28;20050;-65
2022/04/15 00:50:03;;;;;;;6.45;1.98;;;;;;;;;;4992397;28;20053;-63
2022/04/15 00:52:44;;;;;;;2.80;2.45;;;11.10;96.30;;;;;;5007951;28;20033;-65
2022/04/15 00:55:11;;;;;;;4.07;2.20;;;11.10;99.90;;;;;;5007672;28;20053;-64
2022/04/15 00:57:43;;;;;;;2.28;1.95;;;11.00;96.20;;;;;;5010027;28;20514;-64
2022/04/15 01:00:10;;;;;;;5.50;1.85;;;;;;;;;;5010627;28;20037;-64
2022/04/15 01:02:37;;;;;;;2.85;2.25;;;;;;;;;;5011259;28;20030;-64
2022/04/15 01:05:04;;;;;;;4.20;1.73;;;;;;;;;;5010303;28;20073;-64
2022/04/15 01:07:33;;;;;;;2.30;1.55;;;;;;;;;;5010902;28;20041;-64
2022/04/15 01:10:00;;;;;;;2.50;2.13;;;10.50;96.90;;;;;;5010477;28;20037;-65
2022/04/15 01:12:28;;;;;;;3.92;1.80;;;;;;;;;;5010915;28;20040;-64
2022/04/15 01:14:59;;;;;;;5.60;2.20;;;;;;;;;;5010629;28;20037;-65
2022/04/15 01:17:25;;;;;;;4.55;1.75;;;;;;;;;;5009997;28;20026;-63
2022/04/15 01:19:51;;;;;;;3.83;1.75;;;;;;;;;;5010259;28;20026;-65
2022/04/15 01:22:22;;;;;;;2.33;1.80;;;10.80;97.70;;;;;;5011563;28;20032;-64
2022/04/15 01:24:48;;;;;;;2.20;2.00;;;;;;;;;;5042008;28;20491;-64
2022/04/15 01:27:35;;;;;;;2.65;2.45;;;10.60;98.90;;;;;;5009668;28;20041;-62
2022/04/15 01:30:01;;;;;;;8.50;2.17;;;;;;;;;;5010045;28;20041;-64
2022/04/15 01:32:27;;;;;;;2.55;1.65;;;;;;;;;;5010251;28;20034;-64
2022/04/15 01:34:53;;;;;;;5.20;2.13;;;;;;;;;;5010734;28;20034;-65
2022/04/15 01:37:22;;;;;;;2.83;2.45;;;10.40;99.90;;;;;;5010189;28;20091;-63
2022/04/15 01:39:48;;;;;;;9.20;2.08;;;;;;;;;;5009533;28;20034;-65
2022/04/15 01:42:15;;;;;;;2.88;2.05;;;;;;;;;;5010311;28;20041;-63
2022/04/15 01:44:41;;;;;;;2.03;1.60;;;;;;;;;;5010400;28;20037;-64
2022/04/15 01:47:07;;;;;;;5.65;2.38;;;;;;;;;;5008680;28;20313;-64
2022/04/15 01:49:33;;;;;;;4.78;2.20;;;;;;;;;;5010176;28;20172;-64
2022/04/15 01:51:59;;;;;;;2.65;1.95;;;;;;;;;;5010519;28;20535;-65
2022/04/15 01:54:28;;;;;;;6.38;1.95;;;10.40;99.90;;;;;;5009865;28;20165;-64
2022/04/15 01:56:55;;;;;;;1.80;1.70;;;;;;;;;;5009418;28;20040;-64
2022/04/15 01:59:22;;;;;;;7.03;1.83;;;;;;;;;;5009505;28;20045;-65
2022/04/15 02:01:49;;;;;;;3.72;1.73;;;;;;;;;;5009680;28;20080;-65
2022/04/15 02:04:15;;;;;;;2.88;1.42;;;;;;;;;;5009672;28;20505;-64
2022/04/15 02:06:41;;;;;;;2.72;2.03;;;;;;;;;;5007337;28;20142;-65
2022/04/15 02:09:07;;;;;;;2.10;1.25;;;;;;;;;;5009103;28;20062;-64
2022/04/15 02:11:34;;;;;;;3.55;2.03;;;;;;;;;;5009305;28;20054;-64
2022/04/15 02:14:00;;;;;;;3.35;2.25;;;;;;;;;;5009656;28;20022;-64
2022/04/15 02:16:25;;;;;;;5.38;1.88;;;10.50;99.90;;;;;;5010243;28;20028;-63
2022/04/15 02:18:51;;;;;;;3.03;1.63;;;;;;;;;;5008889;28;20216;-65
2022/04/15 02:21:17;;;;;;;1.77;1.67;;;;;;;;;;5009093;28;20590;-64
2022/04/15 02:23:43;;;;;;;2.42;1.83;;;;;;;;;;5009336;28;20038;-64
2022/04/15 02:26:09;;;;;;;2.30;1.65;;;;;;;;;;5009122;28;20037;-65
2022/04/15 02:28:35;;;;;;;1.70;1.60;;;;;;;;;;5009328;28;20056;-64
2022/04/15 02:31:01;;;;;;;1.98;1.38;;;;;;;;;;5009388;28;20486;-65
2022/04/15 02:33:27;;;;;;;1.67;1.52;;;;;;;;;;5009500;28;20038;-65
2022/04/15 02:35:53;;;;;;;2.15;1.85;;;;;;;;;;5008556;28;20021;-64
2022/04/15 02:38:19;;;;;;;4.05;1.95;;;;;;;;;;5009421;28;20125;-64
2022/04/15 02:40:45;;;;;;;3.28;1.85;;;;;;;;;;5008232;28;20490;-65
2022/04/15 02:43:11;;;;;;;4.20;2.38;;;;;;;;;;5010091;28;20037;-65
2022/04/15 02:45:37;;;;;;;2.53;2.03;;;;;;;;;;5008916;28;20087;-64
2022/04/15 02:48:04;;;;;;;8.38;1.75;;;10.10;98.10;;;;;;5008313;28;20050;-64
2022/04/15 02:50:30;;;;;;;3.92;1.85;;;;;;;;;;5006857;28;20022;-64
2022/04/15 02:52:58;;;;;;;2.63;1.60;;;;;;;;;;5009247;28;20057;-65
2022/04/15 02:55:24;;;;;;;4.93;1.80;;;;;;;;;;5005407;28;20117;-64
2022/04/15 02:57:50;;;;;;;3.88;2.22;;;;;;;;;;4997711;28;20100;-63
2022/04/15 03:00:17;;;;;;;6.15;2.10;;;;;;;;;;4996785;28;20602;-65
2022/04/15 03:02:43;;;;;;;2.55;1.70;;;;;;;;;;4999130;28;20033;-64
2022/04/15 03:05:09;;;;;;;3.80;2.00;;;;;;;;;;5008631;28;20045;-63
2022/04/15 03:07:35;;;;;;;2.42;1.90;;;;;;;;;;5008266;28;20053;-63
2022/04/15 03:10:01;;;;;;;2.90;1.63;;;;;;;;;;4996522;28;20838;-65
2022/04/15 03:12:27;;;;;;;7.85;2.15;;;;;;;;;;5005133;28;20038;-64
2022/04/15 03:14:53;;;;;;;2.22;1.80;;;;;;;;;;5008547;28;20491;-65
2022/04/15 03:17:19;;;;;;;2.70;1.48;;;9.70;99.90;;;;;;5008514;28;20025;-63
2022/04/15 03:19:45;;;;;;;4.00;2.22;;;;;;;;;;4991244;28;20701;-65
2022/04/15 03:22:11;;;;;;;4.53;2.00;;;9.70;99.90;;;;;;4995040;28;20562;-64
2022/04/15 03:24:37;;;;;;;2.83;2.63;;;;;;;;;;5006401;28;20056;-65
2022/04/15 03:27:03;;;;;;;2.53;1.70;;;;;;;;;;5007655;28;20124;-63
2022/04/15 03:29:29;;;;;;;5.45;2.00;;;;;;;;;;5008184;28;20030;-65
2022/04/15 03:31:55;;;;;;;2.88;2.28;;;;;;;;;;5007878;28;20565;-63
2022/04/15 03:34:21;;;;;;;2.47;2.05;;;;;;;;;;5009037;28;20026;-66
2022/04/15 03:36:47;;;;;;;2.17;1.58;;;;;;;;;;5007712;28;20492;-65
2022/04/15 03:39:13;;;;;;;2.97;1.48;;;;;;;;;;5001570;28;20030;-64
2022/04/15 03:41:39;;;;;;;1.98;1.70;;;;;;;;;;4998239;28;20029;-64
2022/04/15 03:44:05;;;;;;;3.65;1.55;;;9.50;99.80;;;;;;5008099;28;20026;-63
2022/04/15 03:46:31;;;;;;;4.35;2.38;;;;;;;;;;5008024;28;20414;-65
2022/04/15 03:48:57;;;;;;;1.63;1.52;;;;;;;;;;5007666;28;20026;-64
2022/04/15 03:51:23;;;;;;;1.90;1.45;;;;;;;;;;5000368;28;20030;-63
2022/04/15 03:53:49;;;;;;;5.85;2.13;;;;;;;;;;4999219;28;20395;-64
2022/04/15 03:56:15;;;;;;;2.17;1.98;;;;;;;;;;5007711;28;20056;-65
2022/04/15 03:58:41;;;;;;;2.30;2.10;;;;;;;;;;5007391;28;20606;-63
2022/04/15 04:01:07;;;;;;;2.40;1.98;;;;;;;;;;4994822;28;20026;-64
2022/04/15 04:03:33;;;;;;;3.35;2.85;;;;;;;;;;5036895;28;20122;-64
2022/04/15 04:05:59;;;;;;;2.13;1.92;;;;;;;;;;5007268;28;20506;-64
2022/04/15 04:08:25;;;;;;;4.35;1.90;;;9.40;99.90;;;;;;5007797;28;20068;-63
2022/04/15 04:10:51;;;;;;;3.55;1.98;;;;;;;;;;5007300;28;20468;-64
2022/04/15 04:13:17;;;;;;;10.05;3.15;;;;;;;;;;4999295;28;20121;-64
2022/04/15 04:15:43;;;;;;;13.23;2.97;;;;;;;;;;5006785;28;20101;-64
2022/04/15 04:18:11;;;;;;;5.47;3.40;;;;;;;;;;5001901;28;20439;-65
2022/04/15 04:20:37;;;;;;;5.95;2.08;;;;;;;;;;4996031;28;20030;-64
2022/04/15 04:23:03;;;;;;;3.72;1.95;;;;;;;;;;4993303;28;20030;-63
2022/04/15 04:25:29;;;;;;;3.60;1.85;;;;;;;;;;5007297;28;20038;-64
2022/04/15 04:27:55;;;;;;;5.22;3.10;;;;;;;;;;4996052;28;20109;-66
2022/04/15 04:30:21;;;;;;;5.28;2.65;;;;;;;;;;4996924;28;20109;-64
2022/04/15 04:32:50;;;;;;;5.43;2.83;;;;;;;;;;5000746;28;20030;-64
2022/04/15 04:35:20;;;;;;;3.47;2.22;;;;;;;;;;4998437;28;20375;-64
2022/04/15 04:37:46;;;;;;;8.77;2.70;;;;;;;;;;4995567;28;20037;-63
2022/04/15 04:40:13;;;;;;;2.33;1.77;;;;;;;;;;4997911;28;20480;-63
2022/04/15 04:42:39;;;;;;;3.70;2.40;;;9.00;98.40;;;;;;5009580;28;20037;-64
2022/04/15 04:45:06;;;;;;;3.47;2.70;;;9.00;98.40;;;;;;5010627;28;20057;-64
2022/04/15 04:47:32;;;;;;;2.20;1.93;;;;;;;;;;5042412;28;20088;-64
2022/04/15 04:49:58;;;;;;;3.25;2.38;;;;;;;;;;5010658;28;20025;-63
2022/04/15 04:52:24;;;;;;;2.25;2.00;;;;;;;;;;4996458;28;20499;-64
2022/04/15 04:54:50;;;;;;;5.15;2.60;;;;;;;;;;5010866;28;20146;-64
2022/04/15 04:57:17;;;;;;;3.30;2.10;;;;;;;;;;5009941;28;20612;-63
2022/04/15 04:59:43;;;;;;;5.35;2.90;;;;;;;;;;5010364;28;20037;-64
2022/04/15 05:02:10;;;;;;;7.10;2.55;;;;;;;;;;5011020;28;20049;-64
2022/04/15 05:04:36;;;;;;;6.13;2.63;;;;;;;;;;4995615;28;20109;-65
2022/04/15 05:07:03;;;;;;;4.15;3.05;;;;;;;;;;4997965;28;20078;-64
2022/04/15 05:09:29;;;;;;;5.45;3.00;;;;;;;;;;4999656;28;20034;-64
2022/04/15 05:11:55;;;;;;;5.40;2.42;;;;;;;;;;4999417;28;20053;-64
2022/04/15 05:14:21;;;;;;;3.17;2.25;;;;;;;;;;5005083;28;20034;-66
2022/04/15 05:16:47;;;;;;;14.43;4.03;;;;;;;;;;5009759;28;20754;-64
2022/04/15 05:19:14;;;;;;;3.35;2.08;;;;;;;;;;5006306;28;20053;-63
2022/04/15 05:21:40;;;;;;;3.38;1.85;;;;;;;;;;5006102;28;20029;-63
2022/04/15 05:24:10;;;;;;;3.33;1.63;;;;;;;;;;5006697;28;20487;-63
2022/04/15 05:26:37;;;;;;;5.97;3.03;;;;;;;;;;5036132;28;20107;-63
2022/04/15 05:29:03;;;;;;;6.45;2.50;;;;;;;;;;5006255;28;20648;-64
2022/04/15 05:31:29;;;;;;;2.58;2.28;;;;;;;;;;5020443;28;20027;-64
2022/04/15 05:33:55;;;;;;;5.28;2.25;;;;;;;;;;5005422;28;20443;-64
2022/04/15 05:36:21;;;;;;;2.28;1.90;;;;;;;;;;5007577;28;20109;-63
2022/04/15 05:38:47;;;;;;;7.13;2.50;;;;;;;;;;5005768;28;20021;-66
2022/04/15 05:41:13;;;;;;;6.18;3.72;;;;;;;;;;5005598;28;20389;-65
2022/04/15 05:43:39;;;;;;;3.45;2.38;;;;;;;;;;5007596;28;20559;-65
2022/04/15 05:46:05;;;;;;;3.45;2.45;;;;;;;;;;5005180;28;20452;-64
2022/04/15 05:48:32;;;;;;;3.97;2.55;;;;;;;;;;4999491;28;20121;-66
2022/04/15 05:50:58;;;;;;;4.93;2.85;;;;;;;;;;5009914;28;20041;-65
2022/04/15 05:53:24;;;;;;;3.80;2.83;;;;;;;;;;5015278;28;20633;-65
2022/04/15 05:55:50;;;;;;;10.48;2.90;;;;;;;;;;5006641;28;20101;-65
2022/04/15 05:58:16;;;;;;;4.32;2.70;;;;;;;;;;5001515;28;20057;-61
2022/04/15 06:00:42;;;;;;;4.22;2.53;;;;;;;;;;4996878;28;20837;-64
2022/04/15 06:03:08;;;;;;;6.20;2.63;;;;;;;;;;4994915;28;20140;-64
2022/04/15 06:05:35;;;;;;;3.20;2.20;;;;;;;;;;4994706;28;20029;-63
2022/04/15 06:08:01;;;;;;;6.45;3.58;;;;;;;;;;5022583;28;20124;-65
2022/04/15 06:10:27;;;;;;;4.28;2.55;;;;;;;;;;4993013;28;20172;-64
2022/04/15 06:13:08;;;;;;;4.05;2.55;;;;;;;;;;4996774;28;20449;-64
2022/04/15 06:15:36;;;;;;;4.18;2.65;;;;;;;;;;4997228;28;20054;-63
2022/04/15 06:18:02;;;;;;;4.70;2.15;;;;;;;;;;4994825;28;20110;-63
2022/04/15 06:20:29;;;;;;;2.95;2.53;;;;;;;;;;4994090;28;20100;-63
2022/04/15 06:22:55;;;;;;;2.78;2.25;;;;;;;;;;4990841;28;20057;-63
2022/04/15 06:25:21;;;;;;;3.47;2.80;;;;;;;;;;4994246;28;20030;-64
2022/04/15 06:27:47;;;;;;;4.57;2.83;;;;;;;;;;4993923;28;20039;-65
2022/04/15 06:30:13;;;;;;;4.05;2.65;;;;;;;;;;4993821;28;20636;-64
2022/04/15 06:32:40;;;;;;;2.88;1.90;;;14.70;89.50;;;;;;4994048;28;20053;-65
2022/04/15 06:35:06;;;;;;;2.30;1.85;;;15.10;91.70;;;;;;4990879;28;20381;-68
2022/04/15 06:37:31;;;;;;;3.47;2.00;;;16.10;95.80;;;;;;4992499;28;20030;-69
2022/04/15 06:39:57;;;;;;;6.07;2.20;;;;;;;;;;4999627;28;20612;-70
2022/04/15 06:42:24;;;;;;;3.28;2.55;;;;;;;;;;5000354;28;20030;-70
2022/04/15 06:44:50;;;;;;;3.15;1.92;;;18.70;73.00;;;;;;5004251;28;20077;-69
2022/04/15 06:47:16;;;;;;;3.40;2.10;;;;;;;;;;5017188;28;20052;-69
2022/04/15 06:49:42;;;;;;;6.88;2.83;;;;;;;;;;5002389;28;20030;-68
2022/04/15 06:52:09;;;;;;;3.13;2.05;;;;;;;;;;5017582;28;20618;-70
2022/04/15 06:54:35;;;;;;;5.33;1.70;;;;;;;;;;5004266;28;20084;-69
2022/04/15 06:57:01;;;;;;;4.20;2.75;;;;;;;;;;5003469;28;20292;-70
2022/04/15 06:59:27;;;;;;;7.05;1.95;;;;;;;;;;5001350;28;20022;-71
2022/04/15 07:01:55;;;;;;;3.72;2.13;;;;;;;;;;5002536;28;20141;-70
2022/04/15 07:04:21;;;;;;;6.25;3.35;;;;;;;;;;4996525;28;20523;-67
2022/04/15 07:06:47;;;;;;;6.60;3.03;;;;;;;;;;5005269;28;20499;-67
2022/04/15 07:09:13;;;;;;;6.65;3.03;;;;;;;;;;5006333;28;20273;-67
2022/04/15 07:11:39;;;;;;;6.13;2.10;;;;;;;;;;5003256;28;20491;-69
2022/04/15 07:14:05;;;;;;;2.72;1.80;;;;;;;;;;5001487;28;20025;-70
2022/04/15 07:16:31;;;;;;;5.32;1.90;;;24.70;53.90;;;;;;5005276;28;20061;-70
2022/04/15 07:18:57;;;;;;;4.13;2.65;;;;;;;;;;4996438;28;20038;-69
2022/04/15 07:21:24;;;;;;;2.92;1.42;;;;;;;;;;4996186;28;20594;-70
2022/04/15 07:23:50;;;;;;;3.08;2.03;;;25.90;69.20;;;;;;5001777;28;20044;-70
2022/04/15 07:26:16;;;;;;;4.37;2.23;;;;;;;;;;5002358;28;20038;-70
2022/04/15 07:28:42;;;;;;;2.70;1.60;;;;;;;;;;5003619;28;20136;-70
2022/04/15 07:31:07;;;;;;;6.83;1.50;;;27.00;67.30;;;;;;5006298;28;20115;-70
2022/04/15 07:33:33;;;;;;;10.77;1.70;;;;;;;;;;5000193;28;20576;-68
2022/04/15 07:35:59;;;;;;;2.20;1.00;;;;;;;;;;4998811;28;20026;-69
2022/04/15 07:38:25;;;;;;;3.83;1.30;;;;;;;;;;4999225;28;20168;-70
2022/04/15 07:40:51;;;;;;;4.85;1.17;;;28.60;50.40;;;;;;5002471;28;20026;-69
2022/04/15 07:43:17;;;;;;;1.97;0.77;;;;;;;;;;4998536;28;20041;-69
2022/04/15 07:45:43;;;;;;;3.03;1.05;;;;;;;;;;5002389;28;20443;-70
2022/04/15 07:48:10;;;;;;;4.65;0.95;;;;;;;;;;5003768;28;20052;-69
2022/04/15 07:50:37;;;;;;;1.67;1.08;;;;;;;;;;5001158;28;20029;-68
2022/04/15 07:53:03;;;;;;;3.33;1.55;;;;;;;;;;5000765;28;20033;-69
2022/04/15 07:55:29;;;;;;;7.47;1.40;;;;;;;;;;5005186;28;20058;-69
2022/04/15 07:57:56;;;;;;;5.43;1.17;;;;;;;;;;5002132;28;20547;-67
2022/04/15 08:00:22;;;;;;;3.38;1.10;;;;;;;;;;5003548;28;20035;-68
2022/04/15 08:02:48;;;;;;;7.80;1.25;;;;;;;;;;5000463;28;20037;-69
2022/04/15 08:05:14;;;;;;;3.17;1.30;;;;;;;;;;5002602;28;20046;-69
2022/04/15 08:07:41;;;;;;;4.35;1.38;;;;;;;;;;4989355;28;20030;-69
2022/04/15 08:10:07;;;;;;;9.35;1.40;;;;;;;;;;5005516;28;20069;-67
2022/04/15 08:12:33;;;;;;;1.95;1.27;;;;;;;;;;5001972;28;20034;-68
2022/04/15 08:15:00;;;;;;;5.25;1.40;;;;;;;;;;5002543;28;20034;-68
2022/04/15 08:17:26;;;;;;;9.27;1.33;;;;;;;;;;5004476;28;20030;-68
2022/04/15 08:19:52;;;;;;;6.25;1.17;;;;;;;;;;5000668;28;20109;-69
2022/04/15 08:22:18;;;;;;;6.65;2.55;;;;;;;;;;4992588;28;20113;-70
2022/04/15 08:24:45;;;;;;;3.05;2.25;;;;;;;;;;5004498;28;20083;-70
2022/04/15 08:27:11;;;;;;;4.88;1.48;;;;;;;;;;4997607;28;20108;-71
2022/04/15 08:29:39;;;;;;;3.85;1.60;;;;;;;;;;4992634;28;20034;-69
2022/04/15 08:32:14;;;;;;;5.30;1.33;;;;;;;;;;5002863;28;20029;-69
2022/04/15 08:34:40;;;;;;;3.17;1.42;;;32.20;55.10;;;;;;5002343;28;20474;-70
2022/04/15 08:37:05;;;;;;;6.82;1.42;;;32.90;55.30;;;;;;4991044;28;20023;-69
2022/04/15 08:39:31;;;;;;;3.23;1.67;;;;;;;;;;4999602;28;20041;-68
2022/04/15 08:41:58;;;;;;;2.35;1.70;;;;;;;;;;5000809;28;20117;-70
2022/04/15 08:44:25;;;;;;;8.43;2.13;;;;;;;;;;4998628;28;20057;-69
2022/04/15 08:46:51;;;;;;;7.55;2.40;;;;;;;;;;5002493;28;20041;-69
2022/04/15 08:49:19;;;;;;;8.55;2.58;;;;;;;;;;4991685;28;20031;-70
2022/04/15 08:51:52;;;;;;;4.05;1.45;;;;;;;;;;4993514;28;20037;-69
2022/04/15 08:54:21;;;;;;;6.30;2.30;;;;;;;;;;4995869;28;20418;-69
2022/04/15 08:56:47;;;;;;;5.65;2.28;;;;;;;;;;4999541;28;20144;-68
2022/04/15 08:59:16;;;;;;;7.82;2.20;;;;;;;;;;4988565;28;20045;-68
2022/04/15 09:01:43;;;;;;;5.10;1.20;;;;;;;;;;5019224;28;20026;-70
2022/04/15 09:04:09;;;;;;;3.42;1.48;;;30.20;50.10;;;;;;5002161;28;20076;-68
2022/04/15 09:06:35;;;;;;;2.47;1.83;;;;;;;;;;5000849;28;20499;-71
2022/04/15 09:09:01;;;;;;;3.28;1.55;;;;;;;;;;4998185;28;20030;-70
2022/04/15 09:11:31;;;;;;;3.40;1.60;;;;;;;;;;5000229;28;20030;-70
2022/04/15 09:14:00;;;;;;;3.35;1.50;;;;;;;;;;4996688;28;20030;-70
2022/04/15 09:16:25;;;;;;;3.05;1.70;;;31.60;53.40;;;;;;5002811;28;20033;-70
2022/04/15 09:18:52;;;;;;;5.17;1.80;;;;;;;;;;5006410;28;20426;-70
2022/04/15 09:21:22;;;;;;;5.00;2.58;;;;;;;;;;4993400;28;20077;-71
2022/04/15 09:23:52;;;;;;;3.90;1.63;;;;;;;;;;4998509;28;20407;-71
2022/04/15 09:26:19;;;;;;;6.55;2.10;;;;;;;;;;4998106;28;20096;-70
2022/04/15 09:28:45;;;;;;;3.72;1.83;;;32.10;47.30;;;;;;4991708;28;20052;-70
2022/04/15 09:31:15;;;;;;;9.52;2.58;;;;;;;;;;5007613;28;20507;-66
2022/04/15 09:33:54;;;;;;;4.97;2.28;;;;;;;;;;5001910;28;20042;-67
2022/04/15 09:36:31;;;;;;;3.88;2.10;;;;;;;;;;5005539;28;20265;-66
2022/04/15 09:38:57;;;;;;;4.75;2.50;;;;;;;;;;5005787;28;20049;-68
2022/04/15 09:41:23;;;;;;;3.67;1.50;;;;;;;;;;5014225;28;20129;-68
2022/04/15 09:43:53;;;;;;;3.88;2.08;;;31.70;39.20;;;;;;4999924;28;20053;-69
2022/04/15 09:46:20;;;;;;;10.63;3.80;;;;;;;;;;5017004;28;20037;-69
2022/04/15 09:49:06;;;;;;;4.97;2.03;;;;;;;;;;5014535;28;20049;-70
2022/04/15 09:51:43;;;;;;;3.63;1.80;;;;;;;;;;5021831;28;20583;-68
2022/04/15 09:54:30;;;;;;;5.25;1.60;;;29.50;42.20;;;;;;5023871;28;20489;-68
2022/04/15 09:56:59;;;;;;;4.82;2.30;;;;;;;;;;5029394;28;20042;-69
2022/04/15 09:59:26;;;;;;;4.88;2.05;;;;;;;;;;5026233;28;20401;-67
2022/04/15 10:01:57;;;;;;;2.58;1.38;;;28.70;43.30;;;;;;5020913;28;20039;-66
2022/04/15 10:04:24;;;;;;;4.97;1.80;;;;;;;;;;5026475;28;20025;-67
2022/04/15 10:06:50;;;;;;;7.85;1.40;;;;;;;;;;5031072;28;20072;-67
2022/04/15 10:09:16;;;;;;;8.20;2.63;;;;;;;;;;5024398;28;20033;-67
2022/04/15 10:11:43;;;;;;;8.82;2.58;;;;;;;;;;5018323;28;20041;-67
2022/04/15 10:14:11;;;;;;;3.85;1.83;;;29.00;60.20;;;;;;5023338;28;20033;-67
2022/04/15 10:16:42;;;;;;;5.72;2.35;;;;;;;;;;5022448;28;20397;-67
2022/04/15 10:19:08;;;;;;;10.93;2.00;;;;;;;;;;5014917;28;20038;-67
2022/04/15 10:21:37;;;;;;;3.15;1.52;;;;;;;;;;5023006;28;20018;-67
2022/04/15 10:24:03;;;;;;;7.03;2.90;;;;;;;;;;5021657;28;20037;-66
2022/04/15 10:26:39;;;;;;;2.88;2.08;;;;;;;;;;5016605;28;20033;-68
2022/04/15 10:29:05;;;;;;;2.97;1.83;;;;;;;;;;5022668;28;20030;-68
2022/04/15 10:31:42;;;;;;;4.95;2.35;;;;;;;;;;5022756;28;20067;-67
2022/04/15 10:34:12;;;;;;;4.90;1.83;;;;;;;;;;5034279;28;20173;-66
2022/04/15 10:36:38;;;;;;;4.90;1.90;;;27.10;63.30;;;;;;5025584;28;20033;-67
2022/04/15 10:39:08;;;;;;;10.30;2.92;;;;;;;;;;5023038;28;20038;-67
2022/04/15 10:41:44;;;;;;;6.97;2.92;;;;;;;;;;5017697;28;20022;-66
2022/04/15 10:44:14;;;;;;;3.75;1.95;;;;;;;;;;5019136;28;20037;-66
2022/04/15 10:46:40;;;;;;;5.28;2.47;;;;;;;;;;5044844;28;20395;-66
2022/04/15 10:49:27;;;;;;;9.10;2.80;;;;;;;;;;5023445;28;20114;-66
2022/04/15 10:51:57;;;;;;;3.90;2.72;;;;;;;;;;5023061;28;20037;-67
2022/04/15 10:54:35;;;;;;;3.42;2.33;;;;;;;;;;5016546;28;20021;-68
2022/04/15 10:57:05;;;;;;;17.55;2.22;;;;;;;;;;5019220;28;20045;-66
2022/04/15 11:02:17;;;;;;;4.28;1.80;;;;;;;;;;5022519;28;20045;-66
2022/04/15 11:04:47;;;;;;;8.57;1.97;;;;;;;;;;5023910;28;20482;-66
2022/04/15 11:07:26;;;;;;;4.50;1.88;;;;;;;;;;5026946;28;20554;-66
2022/04/15 11:09:53;;;;;;;3.45;1.70;;;;;;;;;;5022159;28;20068;-66
2022/04/15 11:12:35;;;;;;;5.10;2.20;;;;;;;;;;5020756;28;20228;-67
2022/04/15 11:15:01;;;;;;;6.13;2.00;;;;;;;;;;5018901;28;20033;-67
2022/04/15 11:17:41;;;;;;;4.40;1.80;;;;;;;;;;5024421;28;20471;-68
2022/04/15 11:20:10;;;;;;;8.00;3.20;;;;;;;;;;5017902;28;20026;-69
2022/04/15 11:22:43;;;;;;;3.72;1.70;;;;;;;;;;5023857;28;20022;-67
2022/04/15 11:25:10;;;;;;;9.18;2.22;;;;;;;;;;5027155;28;20514;-68
2022/04/15 11:27:38;;;;;;;16.75;2.35;;;;;;;;;;5014801;28;20125;-69
2022/04/15 11:30:05;;;;;;;7.95;2.85;;;;;;;;;;5017109;28;20045;-70
2022/04/15 11:32:31;;;;;;;9.82;1.95;;;;;;;;;;5022677;28;20122;-69
2022/04/15 11:35:03;;;;;;;5.03;1.92;;;;;;;;;;5022553;28;20037;-67
2022/04/15 11:37:29;;;;;;;6.18;2.10;;;;;;;;;;5027452;28;20505;-70
2022/04/15 11:39:58;;;;;;;9.02;2.05;;;;;;;;;;5030010;28;20021;-68
2022/04/15 11:42:26;;;;;;;9.05;2.20;;;;;;;;;;5021541;28;20514;-68
2022/04/15 11:44:52;;;;;;;11.98;2.10;;;;;;;;;;5021452;28;20022;-65
2022/04/15 11:47:24;;;;;;;14.18;3.00;;;;;;;;;;5032345;28;20045;-68
2022/04/15 11:49:53;;;;;;;3.83;1.98;;;;;;;;;;5026567;28;20030;-69
2022/04/15 11:52:21;;;;;;;7.43;3.33;;;;;;;;;;5035561;28;20025;-69
2022/04/15 11:54:47;;;;;;;;;;;;;;;;;;5019110;28;20045;-68
2022/04/15 11:57:13;;;;;;;5.65;2.22;;;;;;;;;;5017554;28;19964;-69
2022/04/15 11:59:43;;;;;;;8.37;2.13;;;;;;;;;;5009794;28;20029;-69
2022/04/15 12:02:10;;;;;;;3.72;1.88;;;;;;;;;;5024919;28;20140;-68
2022/04/15 12:04:36;;;;;;;9.73;2.13;;;;;;;;;;5024541;28;20420;-70
2022/04/15 12:07:12;;;;;;;10.60;2.13;;;23.90;51.60;;;;;;5026015;28;20049;-68
2022/04/15 12:09:39;;;;;;;3.07;1.67;;;;;;;;;;5015616;28;20033;-68
2022/04/15 12:12:06;;;;;;;;;;;;;;;;;;5023214;28;20434;-68
2022/04/15 12:14:36;;;;;;;15.50;2.30;;;24.20;51.00;;;;;;5022269;28;20004;-68
2022/04/15 12:17:03;;;;;;;8.23;2.13;;;;;;;;;;5019870;28;20033;-68
2022/04/15 12:19:29;;;;;;;9.38;2.78;;;;;;;;;;5010865;28;20033;-68
2022/04/15 12:21:55;;;;;;;4.07;2.38;;;;;;;;;;5024968;28;20110;-69
2022/04/15 12:24:22;;;;;;;5.30;2.17;;;;;;;;;;5029380;28;20124;-69
2022/04/15 12:26:48;;;;;;;4.68;2.17;;;;;;;;;;5022158;28;20034;-69
2022/04/15 12:32:14;;;;;;;6.65;1.73;;;;;;;;;;5008916;28;20086;-69
2022/04/15 12:34:42;;;;;;;6.15;1.50;;;;;;;;;;5009777;28;20434;-69
2022/04/15 12:37:47;;;;;;;4.25;2.17;;;23.80;52.00;;;;;;5011979;28;20052;-69
2022/04/15 12:40:19;;;;;;;5.07;2.33;;;24.00;52.50;;;;;;5020995;28;20025;-70
2022/04/15 12:42:46;;;;;;;8.90;1.95;;;23.90;52.10;;;;;;5028145;28;20040;-73
2022/04/15 12:45:15;;;;;;;1.75;1.38;;;;;;;;;;5021215;28;20037;-69
2022/04/15 12:47:41;;;;;;;17.70;2.53;;;;;;;;;;5024461;28;20053;-78
2022/04/15 12:50:24;;;;;;;12.77;2.25;;;;;;;;;;5038639;28;20033;-69
2022/04/15 12:52:52;;;;;;;14.63;1.92;;;;;;;;;;5035747;28;20049;-69
2022/04/15 12:55:27;;;;;;;;;;;23.30;51.80;;;;;;5017036;28;20046;-69
2022/04/15 12:57:52;;;;;;;3.33;1.85;;;23.40;55.90;;;;;;5040319;28;20349;-69
2022/04/15 13:00:18;;;;;;;10.57;1.92;;;;;;;;;;5026257;28;20037;-69
2022/04/15 13:02:44;;;;;;;2.20;1.60;;;;;;;;;;5023508;28;20033;-69
2022/04/15 13:05:11;;;;;;;3.13;1.95;;;;;;;;;;5035139;28;20419;-69
2022/04/15 13:07:37;;;;;;;3.35;2.17;;;;;;;;;;5028869;28;20044;-69
2022/04/15 13:10:05;;;;;;;2.83;1.40;;;;;;;;;;5031904;28;20037;-68
2022/04/15 13:12:31;;;;;;;4.72;1.98;;;23.20;55.10;;;;;;5048140;28;20458;-69
2022/04/15 13:14:57;;;;;;;5.95;2.00;;;;;;;;;;5026866;28;20084;-69
2022/04/15 13:17:23;;;;;;;8.82;1.35;;;;;;;;;;5018536;28;20036;-69
2022/04/15 13:19:49;;;;;;;2.92;1.10;;;;;;;;;;5037949;28;20056;-70
2022/04/15 13:22:16;;;;;;;4.45;1.90;;;23.40;62.10;;;;;;5022471;28;20429;-69
2022/04/15 13:24:42;;;;;;;10.48;2.67;;;;;;;;;;5037079;28;20587;-69
2022/04/15 13:27:09;;;;;;;3.22;1.30;;;;;;;;;;5036824;28;20534;-69
2022/04/15 13:29:36;;;;;;;1.65;1.52;;;23.00;74.20;;;;;;5041610;28;20025;-69
2022/04/15 13:32:02;;;;;;;5.65;2.28;;;;;;;;;;5030362;28;20030;-69
2022/04/15 13:34:35;;;;;;;3.33;1.08;;;;;;;;;;5043805;28;20032;-69
2022/04/15 13:37:05;;;;;;;4.38;1.98;;;;;;;;;;5032564;28;20410;-70
2022/04/15 13:39:31;;;;;;;4.35;1.60;;;23.50;58.80;;;;;;5038589;28;20031;-70
2022/04/15 13:41:58;;;;;;;5.70;1.47;;;23.10;54.60;;;;;;5036603;28;20526;-69
2022/04/15 13:44:25;;;;;;;4.57;1.27;;;;;;;;;;5029293;28;20029;-69
2022/04/15 13:46:51;;;;;;;4.53;1.45;;;23.30;64.90;;;;;;5046061;28;20514;-69
2022/04/15 13:49:17;;;;;;;7.40;1.10;;;;;;;;;;5039599;28;20043;-70
2022/04/15 13:51:43;;;;;;;2.00;1.15;;;;;;;;;;5019975;28;20047;-69
2022/04/15 13:56:54;;;;;;;3.47;1.50;;;;;;;;;;5033799;28;20539;-69
2022/04/15 13:59:20;;;;;;;2.67;1.60;;;23.20;75.90;;;;;;5032144;28;20042;-69
2022/04/15 14:01:46;;;;;;;3.47;1.45;;;;;;;;;;5041386;28;20096;-69
2022/04/15 14:04:15;;;;;;;6.80;1.63;;;23.40;55.20;;;;;;5034143;28;20098;-70
2022/04/15 14:06:42;;;;;;;1.67;1.38;;;;;;;;;;5031910;28;20948;-68
2022/04/15 14:09:10;;;;;;;3.45;1.55;;;23.20;53.80;;;;;;5033447;28;20775;-70
2022/04/15 14:11:40;;;;;;;8.30;1.88;;;;;;;;;;5029995;28;20044;-69
2022/04/15 14:14:07;;;;;;;1.30;1.10;;;;;;;;;;5047628;28;20073;-69
2022/04/15 14:16:33;;;;;;;;;;;;;;;;;;5040277;28;20029;-69
2022/04/15 14:18:59;;;;;;;10.65;1.23;;;23.00;58.70;;;;;;5029843;28;19912;-70
2022/04/15 14:21:25;;;;;;;2.15;1.60;;;;;;;;;;5037795;28;20102;-70
2022/04/15 14:23:52;;;;;;;3.83;1.75;;;;;;;;;;5038039;28;20574;-70
2022/04/15 14:26:18;;;;;;;8.70;2.17;;;;;;;;;;5033928;28;20029;-70
2022/04/15 14:28:45;;;;;;;7.25;2.22;;;;;;;;;;5013542;28;20592;-69
2022/04/15 14:31:11;;;;;;;5.88;1.73;;;;;;;;;;5041084;28;20500;-69
2022/04/15 14:33:38;;;;;;;10.32;2.90;;;;;;;;;;5028928;28;20041;-69